Flight Track Log - Related Links

Times and Time Zones

All times are in EDT time to prevent confusion due to time zone crossing. See the ASA125 flight status page for this flight to view local times or setup timezone preferences in your user account.

Time Position Orientation Groundspeed Altitude Reporting Facility
EDT Latitude Longitude Course Direction KTS MPH feet Rate Location/Type
Mon 01:01:17 AM 47.4306 -122.3097 178° South 175 201 1,600  Level Seattle Center
Mon 01:02:00 AM 47.3922 -122.3078 178° South 198 228 3,400 2,488 Climbing Seattle Center
Mon 01:02:39 AM 47.3550 -122.3100 182° South 212 244 5,000 1,576 Climbing Seattle Center
Mon 01:03:39 AM 47.3089 -122.3781 225° Southwest 261 300 6,000 793 Climbing Seattle Center
Mon 01:04:40 AM 47.3239 -122.4842 282° West 276 318 6,600 1,488 Climbing Seattle Center
Mon 01:05:40 AM 47.3739 -122.5689 311° West 275 316 9,000 2,231 Climbing Seattle Center
Mon 01:06:41 AM 47.4369 -122.6500 319° Northwest 305 351 11,100 2,361 Climbing Seattle Center
Mon 01:07:42 AM 47.5161 -122.7497 320° Northwest 346 398 13,800 2,380 Climbing Seattle Center
Mon 01:08:42 AM 47.5803 -122.8333 319° Northwest 367 422 15,900 2,231 Climbing Seattle Center
Mon 01:09:43 AM 47.6575 -122.9433 316° Northwest 385 443 18,300 2,557 Climbing Seattle Center
Mon 01:10:44 AM 47.7253 -123.1075 302° West 392 451 21,100 2,331 Climbing Seattle Center
Mon 01:11:44 AM 47.7844 -123.2478 302° West 398 458 23,000 1,686 Climbing Seattle Center
Mon 01:12:45 AM 47.8456 -123.3925 302° West 410 472 24,500 1,279 Climbing Seattle Center
Mon 01:13:46 AM 47.9306 -123.5264 313° West 449 517 25,600 1,240 Climbing Seattle Center
Mon 01:14:46 AM 48.0431 -123.6328 328° Northwest 473 544 27,000 1,686 Climbing Seattle Center
Mon 01:15:47 AM 48.1556 -123.7436 327° Northwest 484 557 29,000 1,636 Climbing Seattle Center
Mon 01:16:47 AM 48.2639 -123.8514 326° Northwest 476 548 30,300 1,148 Climbing Seattle Center
Mon 01:18:50 AM 48.4833 -124.1000 323° Northwest 500 575 32,500 1,049 Climbing Vancouver Center
Mon 01:19:50 AM 48.6000 -124.2000 330° Northwest 510 587 33,500 750 Climbing Vancouver Center
Mon 01:20:50 AM 48.7333 -124.3333 327° Northwest 510 587 34,000 350 Climbing Vancouver Center
Mon 01:21:50 AM 48.8500 -124.4667 323° Northwest 520 598 34,200 700 Climbing Vancouver Center
Mon 01:22:50 AM 48.9667 -124.5833 327° Northwest 520 598 35,400 850 Climbing Vancouver Center
Mon 01:23:50 AM 49.0833 -124.6833 331° Northwest 530 610 35,900 750 Climbing Vancouver Center
Mon 01:24:50 AM 49.2167 -124.8167 327° Northwest 540 621 36,900 1,050 Climbing Vancouver Center
Mon 01:25:50 AM 49.3333 -124.9500 323° Northwest 520 598 38,000 550 Climbing Vancouver Center
Mon 01:26:50 AM 49.4500 -125.0833 323° Northwest 510 587 38,000  Level Vancouver Center
Mon 01:27:50 AM 49.5833 -125.1833 334° Northwest 510 587 38,000  Level Vancouver Center
Mon 01:28:50 AM 49.6833 -125.3167 319° Northwest 510 587 38,000  Level Vancouver Center
Mon 01:29:50 AM 49.8167 -125.4500 327° Northwest 510 587 38,000  Level Vancouver Center
Mon 01:30:50 AM 49.9333 -125.5667 327° Northwest 510 587 38,000  Level Vancouver Center
Mon 01:31:50 AM 50.0333 -125.7000 319° Northwest 510 587 38,000  Level Vancouver Center
Mon 01:32:50 AM 50.1500 -125.8333 324° Northwest 510 587 38,000  Level Vancouver Center
Mon 01:33:50 AM 50.2667 -125.9333 331° Northwest 510 587 38,000  Level Vancouver Center
Mon 01:34:50 AM 50.3833 -126.0833 321° Northwest 500 575 38,000  Level Vancouver Center
Mon 01:35:50 AM 50.5000 -126.1833 331° Northwest 490 564 38,000  Level Vancouver Center
Mon 01:36:50 AM 50.6167 -126.3167 324° Northwest 490 564 38,000  Level Vancouver Center
Mon 01:37:50 AM 50.7333 -126.4333 328° Northwest 490 564 38,000  Level Vancouver Center
Mon 01:38:50 AM 50.8333 -126.5667 320° Northwest 490 564 38,000  Level Vancouver Center
Mon 01:39:50 AM 50.9333 -126.6833 324° Northwest 490 564 38,000  Level Vancouver Center
Mon 01:40:50 AM 51.0500 -126.8333 321° Northwest 500 575 38,000  Level Vancouver Center
Mon 01:41:50 AM 51.1667 -126.9333 332° Northwest 490 564 38,000  Level Vancouver Center
Mon 01:42:50 AM 51.2833 -127.0833 321° Northwest 490 564 38,000  Level Vancouver Center
Mon 01:43:50 AM 51.4000 -127.2000 328° Northwest 490 564 38,000  Level Vancouver Center
Mon 01:44:50 AM 51.5000 -127.3333 320° Northwest 500 575 38,000  Level Vancouver Center
Mon 01:45:50 AM 51.6167 -127.4500 328° Northwest 490 564 38,000  Level Vancouver Center
Mon 01:46:50 AM 51.7333 -127.6000 321° Northwest 490 564 38,000  Level Vancouver Center
Mon 01:47:50 AM 51.8333 -127.7167 324° Northwest 490 564 38,000  Level Vancouver Center
Mon 01:48:50 AM 51.9333 -127.8667 317° Northwest 490 564 38,000  Level Vancouver Center
Mon 01:49:50 AM 52.0500 -127.9833 328° Northwest 490 564 38,000  Level Vancouver Center
Mon 01:50:50 AM 52.1667 -128.1333 322° Northwest 490 564 38,000  Level Vancouver Center
Mon 01:51:50 AM 52.2833 -128.2500 329° Northwest 490 564 38,000  Level Vancouver Center
Mon 01:52:50 AM 52.3833 -128.3667 325° Northwest 490 564 38,000  Level Vancouver Center
Mon 01:53:50 AM 52.5000 -128.4833 329° Northwest 490 564 38,000  Level Vancouver Center
Mon 01:54:50 AM 52.6167 -128.6167 325° Northwest 490 564 38,000  Level Vancouver Center
Mon 01:55:50 AM 52.7333 -128.7333 329° Northwest 500 575 38,000  Level Vancouver Center
Mon 01:56:50 AM 52.8333 -128.8500 325° Northwest 500 575 38,000  Level Vancouver Center
Mon 01:57:50 AM 52.9500 -128.9833 325° Northwest 500 575 38,000  Level Vancouver Center
Mon 01:58:50 AM 53.0833 -129.1000 332° Northwest 500 575 38,000  Level Vancouver Center
Mon 01:59:50 AM 53.1833 -129.2667 315° West 500 575 38,000  Level Vancouver Center
Mon 02:00:50 AM 53.3000 -129.3833 329° Northwest 490 564 38,000  Level Vancouver Center
Mon 02:01:50 AM 53.4167 -129.5167 326° Northwest 500 575 38,000  Level Vancouver Center
Mon 02:02:50 AM 53.5167 -129.6333 325° Northwest 500 575 38,000  Level Vancouver Center
Mon 02:03:50 AM 53.6333 -129.7667 326° Northwest 490 564 38,000  Level Vancouver Center
Mon 02:04:50 AM 53.7667 -129.9000 329° Northwest 490 564 38,000  Level Vancouver Center
Mon 02:05:50 AM 53.8500 -130.0333 317° Northwest 490 564 38,000  Level Vancouver Center
Mon 02:06:50 AM 53.9833 -130.1667 330° Northwest 490 564 38,000  Level Vancouver Center
Mon 02:07:50 AM 54.1000 -130.2833 330° Northwest 490 564 38,000  Level Vancouver Center
Mon 02:08:50 AM 54.2000 -130.4167 322° Northwest 500 575 38,000  Level Vancouver Center
Mon 02:09:50 AM 54.3167 -130.5833 320° Northwest 500 575 38,000  Level Vancouver Center
Mon 02:10:50 AM 54.4333 -130.7167 326° Northwest 500 575 38,000  Level Vancouver Center
Mon 02:11:50 AM 54.5500 -130.8500 326° Northwest 510 587 38,000  Level Vancouver Center
Mon 02:12:50 AM 54.6500 -130.9833 322° Northwest 510 587 38,000  Level Vancouver Center
Mon 02:13:50 AM 54.7833 -131.1167 330° Northwest 510 587 38,000  Level Vancouver Center
Mon 02:14:50 AM 54.8833 -131.2833 316° Northwest 510 587 38,000  Level Vancouver Center
Mon 02:15:50 AM 55.0000 -131.4167 327° Northwest 510 587 38,000  Level Vancouver Center
Mon 02:16:50 AM 55.1167 -131.5667 324° Northwest 510 587 38,000  Level Vancouver Center
Mon 02:17:50 AM 55.2333 -131.7000 327° Northwest 510 587 38,000  Level Vancouver Center
Mon 02:18:50 AM 55.3333 -131.8667 317° Northwest 510 587 38,000  Level Vancouver Center
Mon 02:19:50 AM 55.4667 -132.0167 327° Northwest 510 587 38,000  Level Vancouver Center
Mon 02:20:50 AM 55.5667 -132.1500 323° Northwest 500 575 38,000  Level Vancouver Center
Mon 02:21:50 AM 55.7000 -132.3000 328° Northwest 500 575 38,000  Level Vancouver Center
Mon 02:22:50 AM 55.8000 -132.4167 327° Northwest 500 575 38,000  Level Vancouver Center
Mon 02:23:50 AM 55.9333 -132.5500 331° Northwest 500 575 38,000  Level Vancouver Center
Mon 02:24:50 AM 56.0333 -132.7000 320° Northwest 500 575 38,000  Level Vancouver Center
Mon 02:25:50 AM 56.1667 -132.8167 334° Northwest 510 587 38,000  Level Vancouver Center
Mon 02:26:50 AM 56.2667 -132.9667 320° Northwest 510 587 38,000  Level Vancouver Center
Mon 02:27:50 AM 56.4000 -133.1167 328° Northwest 510 587 38,000  Level Vancouver Center
Mon 02:28:50 AM 56.5167 -133.2333 331° Northwest 510 587 38,000  Level Vancouver Center
Mon 02:29:50 AM 56.6167 -133.3833 320° Northwest 500 575 38,000  Level Vancouver Center
Mon 02:30:50 AM 56.7500 -133.5000 334° Northwest 500 575 38,000  Level Vancouver Center
Mon 02:31:50 AM 56.8500 -133.6500 321° Northwest 500 575 38,000  Level Vancouver Center
Mon 02:32:50 AM 56.9833 -133.7833 331° Northwest 500 575 38,000  Level Vancouver Center
Mon 02:33:50 AM 57.0833 -133.9333 321° Northwest 500 575 38,000  Level Vancouver Center
Mon 02:34:50 AM 57.2167 -134.0667 332° Northwest 500 575 38,000  Level Vancouver Center
Mon 02:35:50 AM 57.3167 -134.2167 321° Northwest 500 575 38,000  Level Vancouver Center
Mon 02:36:50 AM 57.4333 -134.3667 325° Northwest 500 575 38,000  Level Vancouver Center
Mon 02:37:50 AM 57.5500 -134.5000 328° Northwest 500 575 38,000  Level Vancouver Center
Mon 02:38:50 AM 57.6667 -134.6500 326° Northwest 500 575 38,000  Level Vancouver Center
Mon 02:39:50 AM 57.7667 -134.7833 325° Northwest 500 575 38,000  Level Vancouver Center
Mon 02:40:50 AM 57.9000 -134.9500 326° Northwest 500 575 38,000  Level Vancouver Center
Mon 02:41:50 AM 58.0000 -135.1000 322° Northwest 500 575 38,000  Level Vancouver Center
Mon 02:42:50 AM 58.1167 -135.2333 329° Northwest 500 575 38,000 292 Level Vancouver Center
Mon 02:44:14 AM 58.2667 -135.3667 335° Northwest 510 587 38,700 417 Climbing Anchorage Center
Mon 02:45:14 AM 58.4000 -135.4833 335° Northwest 500 575 39,000 150 Climbing Anchorage Center
Mon 02:46:14 AM 58.5167 -135.6167 329° Northwest 500 575 39,000  Level Anchorage Center
Mon 02:47:14 AM 58.6333 -135.7500 329° Northwest 500 575 39,000  Level Anchorage Center
Mon 02:48:14 AM 58.7500 -135.8833 329° Northwest 500 575 39,000  Level Anchorage Center
Mon 02:49:14 AM 58.8833 -136.0167 333° Northwest 490 564 39,000  Level Anchorage Center
Mon 02:50:15 AM 59.0000 -136.1500 330° Northwest 500 575 39,000  Level Anchorage Center
Mon 02:51:15 AM 59.1167 -136.2833 330° Northwest 490 564 39,000 -252 Level Anchorage Center
Mon 02:52:14 AM 59.2333 -136.4167 330° Northwest 490 564 38,500 -500 Descending Anchorage Center
Mon 02:53:15 AM 59.3667 -136.5500 333° Northwest 490 564 38,000 -248 Descending Anchorage Center
Mon 02:54:15 AM 59.4833 -136.7000 327° Northwest 490 564 38,000  Level Anchorage Center
Mon 02:55:15 AM 59.6000 -136.8333 330° Northwest 490 564 38,000  Level Anchorage Center
Mon 02:56:15 AM 59.7167 -136.9667 330° Northwest 490 564 38,000  Level Anchorage Center
Mon 02:57:15 AM 59.8333 -137.1000 330° Northwest 490 564 38,000  Level Anchorage Center
Mon 02:58:15 AM 59.9500 -137.2500 327° Northwest 490 564 38,000  Level Anchorage Center
Mon 02:59:15 AM 60.0667 -137.3833 330° Northwest 490 564 38,000  Level Anchorage Center
Mon 03:00:15 AM 60.1833 -137.5333 327° Northwest 490 564 38,000  Level Anchorage Center
Mon 03:01:16 AM 60.3000 -137.6667 330° Northwest 490 564 38,000  Level Anchorage Center
Mon 03:02:16 AM 60.4167 -137.8167 328° Northwest 490 564 38,000  Level Anchorage Center
Mon 03:03:16 AM 60.5333 -137.9500 331° Northwest 490 564 38,000  Level Anchorage Center
Mon 03:04:16 AM 60.6500 -138.1000 328° Northwest 490 564 38,000  Level Anchorage Center
Mon 03:05:16 AM 60.7667 -138.2500 328° Northwest 490 564 38,000  Level Anchorage Center
Mon 03:06:16 AM 60.8833 -138.3833 331° Northwest 490 564 38,000  Level Anchorage Center
Mon 03:07:16 AM 61.0000 -138.5333 328° Northwest 490 564 38,000  Level Anchorage Center
Mon 03:08:17 AM 61.1000 -138.6833 324° Northwest 480 552 38,000  Level Anchorage Center
Mon 03:09:17 AM 61.2167 -138.8333 328° Northwest 480 552 38,000  Level Anchorage Center
Mon 03:10:17 AM 61.3333 -138.9667 331° Northwest 470 541 38,000  Level Anchorage Center
Mon 03:11:17 AM 61.4333 -139.1333 321° Northwest 460 529 38,000  Level Anchorage Center
Mon 03:12:17 AM 61.5333 -139.3167 319° Northwest 470 541 38,000  Level Anchorage Center
Mon 03:13:17 AM 61.6333 -139.5000 319° Northwest 480 552 38,000  Level Anchorage Center
Mon 03:15:00 AM 61.8017 -139.7942 321° Northwest  Level FlightAware Approximate
Mon 03:22:00 AM 62.4816 -141.0282 319° Northwest  Level FlightAware Approximate
Mon 03:22:12 AM 62.5833 -141.0500 308° West 610 702 38,000  Level Anchorage Center
Mon 03:23:00 AM 62.5774 -141.2100 319° Northwest  Level FlightAware Approximate
Mon 03:23:13 AM 62.6500 -141.2833 302° West 460 529 38,000  Level Anchorage Center
Mon 03:24:00 AM 62.6730 -141.3930 319° Northwest  Level FlightAware Approximate
Mon 03:24:13 AM 62.7500 -141.4833 318° Northwest 460 529 38,000  Level Anchorage Center
Mon 03:25:00 AM 62.7683 -141.5772 319° Northwest  Level FlightAware Approximate
Mon 03:25:13 AM 62.8167 -141.7000 304° West 450 518 38,000  Level Anchorage Center
Mon 03:26:00 AM 62.8634 -141.7626 318° Northwest  Level FlightAware Approximate
Mon 03:26:13 AM 62.9167 -141.8833 320° Northwest 460 529 38,000  Level Anchorage Center
Mon 03:27:00 AM 62.9539 -141.9582 308° West  Level FlightAware Approximate
Mon 03:27:13 AM 63.0000 -142.1000 310° West 450 518 38,000  Level Anchorage Center
Mon 03:28:13 AM 63.0833 -142.3167 310° West 450 518 38,000  Level Anchorage Center
Mon 03:29:13 AM 63.1500 -142.5500 302° West 460 529 38,000  Level Anchorage Center
Mon 03:30:13 AM 63.2167 -142.7833 302° West 460 529 38,000  Level Anchorage Center
Mon 03:31:13 AM 63.3000 -143.0167 309° West 460 529 38,000  Level Anchorage Center
Mon 03:33:13 AM 63.4500 -143.4833 306° West 460 529 38,000  Level Anchorage Center
Mon 03:34:14 AM 63.5167 -143.7167 303° West 450 518 38,000  Level Anchorage Center
Mon 03:35:14 AM 63.6000 -143.9500 309° West 460 529 38,000  Level Anchorage Center
Mon 03:36:14 AM 63.6667 -144.1833 303° West 460 529 38,000 -300 Level Anchorage Center
Mon 03:37:14 AM 63.7333 -144.4167 303° West 450 518 37,400 -1,600 Descending Anchorage Center
Mon 03:38:14 AM 63.8000 -144.6500 303° West 450 518 34,800 -2,700 Descending Anchorage Center
Mon 03:39:14 AM 63.8667 -144.8333 310° West 450 518 32,000 -2,750 Descending Anchorage Center
Mon 03:40:14 AM 63.9500 -145.1167 304° West 440 506 29,300 -2,450 Descending Anchorage Center
Mon 03:41:14 AM 64.0167 -145.3500 303° West 420 483 27,100 -2,250 Descending Anchorage Center
Mon 03:42:14 AM 64.0667 -145.5667 298° West 410 472 24,800 -2,200 Descending Anchorage Center
Mon 03:43:14 AM 64.1333 -145.7667 307° West 390 449 22,700 -2,100 Descending Anchorage Center
Mon 03:44:14 AM 64.2000 -145.9833 305° West 370 426 20,600 -2,100 Descending Anchorage Center
Mon 03:46:00 AM 64.3492 -146.3756 303° West  Level FlightAware Approximate
Mon 03:53:00 AM 64.6832 -147.9101 10° North  Level FlightAware Approximate
Mon 03:54:00 AM 64.8000 -147.8500 16° North  Level FlightAware Approximate
Mon 03:55:00 AM 64.8151 -147.8564 16° North  Level Estimated
Mon 03:56:00 AM 64.8151 -147.8564 16° North  Level Estimated
Mon 03:57:00 AM 64.8151 -147.8564 16° North  Level Estimated
Mon 03:58:00 AM 64.8151 -147.8564 16° North  Level Estimated
Mon 03:59:00 AM 64.8151 -147.8564 16° North  Level Estimated
Mon 04:00:00 AM 64.8151 -147.8564 16° North  Level Estimated
Mon 04:01:00 AM 64.8151 -147.8564 16° North  Level Estimated
Mon 04:02:00 AM 64.8151 -147.8564 16° North  Level Estimated
Mon 04:03:00 AM 64.8151 -147.8564 16° North  Level Estimated
Mon 04:04:00 AM 64.8151 -147.8564 16° North  Level Estimated
Mon 04:05:00 AM 64.8151 -147.8564 16° North  Level Estimated
Mon 04:06:00 AM 64.8151 -147.8564 16° North  Level Estimated
Mon 04:07:00 AM 64.8151 -147.8564 16° North  Level Estimated
Mon 04:08:00 AM 64.8151 -147.8564 16° North  Level Estimated

Login

Don't have an account? Register now (free) for customized features, flight alerts, and more!